Overview Statistics Trail Chart Weather Telemetry Raw packets
 

This is the latest recevied weather packets stored in our database for station/object KJ5FA-9. If no packets are shown the sender has not sent any weather packets the latest 10 day(s).

<< 15 16 17 18 19 20 21 >>
Time Temp. Humidity Pressure Rain* Wind** Luminosity Snow
1787894127 25° C 84% 1017.1 hPa 0 mm - - -
1787892627 25.56° C 84% 1017 hPa 0 mm - - -
1787891127 25.56° C 85% 1016.7 hPa 0 mm - - -
1787889627 25.56° C 86% 1016.5 hPa 0 mm - - -
1787888139 25.56° C 83% 1016.6 hPa 0 mm - - -
1787886627 26.11° C 77% 1016.2 hPa 0 mm - - -
1787885129 26.67° C 76% 1015.5 hPa 0 mm - - -
1787883627 27.22° C 73% 1015.2 hPa 0 mm - - -
1787883135 27.78° C 71% 1015 hPa 0 mm 0 m/s - -
1787881335 28.89° C 59% 1014.6 hPa 0 mm 0 m/s - -
1787880627 29.44° C 58% 1014.6 hPa 0 mm - - -
1787879535 30° C 55% 1014.3 hPa 0 mm 0 m/s - -
1787879127 30.56° C 54% 1014.4 hPa 0 mm - - -
1787877735 31.67° C 50% 1013.9 hPa 0 mm 0.45 m/s, 1° - -
1787877627 31.67° C 50% 1013.8 hPa 0 mm - - -
1787876127 32.22° C 47% 1014 hPa 0 mm - - -
1787875935 32.22° C 47% 1014 hPa 0 mm 0 m/s - -
1787874627 32.78° C 45% 1014.2 hPa 0 mm - - -
1787874135 32.78° C 44% 1014.2 hPa 0 mm 0.89 m/s, 328° - -
1787873127 33.33° C 43% 1014.3 hPa 0 mm - - -
1787872335 33.33° C 43% 1014.5 hPa 0 mm 1.34 m/s, 345° - -
1787871627 33.89° C 44% 1014.6 hPa 0 mm - - -
1787870535 33.89° C 43% 1014.6 hPa 0 mm 1.34 m/s, 347° - -
1787870127 34.44° C 44% 1014.6 hPa 0 mm - - -
1787868735 34.44° C 42% 1014.8 hPa 0 mm 3.13 m/s, 340° - -

* Rain latest hour (hover to see other rain measurements)
** Current wind speed in m/s (hover to see current wind gust speed)